createdAt,value
2024-04-15T00:03:26.708Z,17.60
2024-04-15T00:08:31.422Z,17.65
2024-04-15T00:13:36.099Z,17.50
2024-04-15T00:18:41.540Z,17.56
2024-04-15T00:23:46.251Z,17.53
2024-04-15T00:28:50.933Z,17.47
2024-04-15T00:33:58.072Z,17.46
2024-04-15T00:39:02.853Z,17.24
2024-04-15T00:44:07.814Z,17.24
2024-04-15T00:49:14.517Z,17.30
2024-04-15T00:54:19.523Z,17.17
2024-04-15T00:59:25.286Z,17.30
2024-04-15T01:04:30.106Z,17.21
2024-04-15T01:09:34.836Z,17.06
2024-04-15T01:14:39.505Z,17.23
2024-04-15T01:19:44.232Z,17.37
2024-04-15T01:24:52.707Z,17.31
2024-04-15T01:29:57.577Z,17.38
2024-04-15T01:35:02.285Z,17.41
2024-04-15T01:40:07.375Z,17.38
2024-04-15T01:45:12.521Z,17.48
2024-04-15T01:50:21.424Z,17.43
2024-04-15T01:55:26.096Z,17.52
2024-04-15T02:00:30.820Z,17.50
2024-04-15T02:05:35.524Z,17.66
2024-04-15T02:10:40.265Z,17.78
2024-04-15T02:15:45.447Z,17.84
2024-04-15T02:20:50.156Z,17.73
2024-04-15T02:25:54.884Z,17.70
2024-04-15T02:30:59.666Z,17.62
2024-04-15T02:36:04.411Z,17.64
2024-04-15T02:41:09.114Z,17.60
2024-04-15T02:46:14.137Z,17.66
2024-04-15T02:51:18.924Z,17.51
2024-04-15T02:56:23.637Z,17.59
2024-04-15T03:01:28.401Z,17.65
2024-04-15T03:06:33.153Z,17.55
2024-04-15T03:11:38.644Z,17.59
2024-04-15T03:16:43.876Z,17.54
2024-04-15T03:21:48.652Z,17.57
2024-04-15T03:26:53.457Z,17.58
2024-04-15T03:31:58.175Z,17.42
2024-04-15T03:37:02.954Z,17.39
2024-04-15T03:42:07.823Z,17.53
2024-04-15T03:47:12.873Z,17.33
2024-04-15T03:52:17.734Z,17.24
2024-04-15T03:57:22.655Z,17.31
2024-04-15T04:02:27.578Z,17.13
2024-04-15T04:07:32.436Z,17.20
2024-04-15T04:12:37.168Z,17.32
2024-04-15T04:17:41.986Z,17.33
2024-04-15T04:22:46.739Z,17.28
2024-04-15T04:27:51.433Z,17.25
2024-04-15T04:32:56.752Z,17.36
2024-04-15T04:38:01.735Z,17.42
2024-04-15T04:43:06.830Z,17.40
2024-04-15T04:48:11.948Z,17.44
2024-04-15T04:53:17.140Z,17.62
2024-04-15T04:58:21.853Z,17.68
2024-04-15T05:03:26.622Z,17.78
2024-04-15T05:08:31.344Z,17.74
2024-04-15T05:13:36.567Z,17.97
2024-04-15T05:18:44.843Z,18.23
2024-04-15T05:23:50.421Z,18.48
2024-04-15T05:28:55.168Z,18.54
2024-04-15T05:34:00.017Z,18.59
2024-04-15T05:39:04.704Z,18.36
2024-04-15T05:44:09.543Z,18.25
2024-04-15T05:49:14.290Z,18.51
2024-04-15T05:54:19.048Z,18.64
2024-04-15T05:59:23.978Z,18.99
2024-04-15T06:04:28.813Z,19.44
2024-04-15T06:09:33.587Z,19.92
2024-04-15T06:14:38.400Z,20.34
2024-04-15T06:19:43.116Z,20.67
2024-04-15T06:24:48.446Z,21.11
2024-04-15T06:29:53.404Z,21.51
2024-04-15T06:34:58.086Z,21.91
2024-04-15T06:40:02.777Z,22.38
2024-04-15T06:45:07.758Z,22.76
2024-04-15T06:50:13.397Z,23.06
2024-04-15T06:55:18.342Z,23.51
2024-04-15T07:00:23.215Z,23.91
2024-04-15T07:05:28.138Z,24.17
2024-04-15T07:10:33.303Z,24.44
2024-04-15T07:15:38.124Z,24.57
2024-04-15T07:20:42.801Z,24.83
2024-04-15T07:25:48.040Z,25.30
2024-04-15T07:31:02.741Z,25.65
2024-04-15T07:36:10.481Z,25.67
2024-04-15T07:41:15.191Z,26.09
2024-04-15T07:46:22.316Z,26.53
2024-04-15T07:51:30.844Z,26.92
2024-04-15T07:56:38.065Z,26.89
2024-04-15T08:01:44.755Z,27.34
2024-04-15T08:06:59.971Z,27.84
2024-04-15T08:12:12.829Z,27.86
2024-04-15T08:17:17.726Z,28.37
2024-04-15T08:22:23.883Z,28.24
2024-04-15T08:27:28.656Z,29.19
2024-04-15T08:32:33.517Z,29.21
2024-04-15T08:37:38.259Z,29.88
2024-04-15T08:42:49.080Z,30.08
2024-04-15T08:47:57.226Z,30.39
2024-04-15T08:53:02.078Z,30.60
2024-04-15T08:58:07.809Z,30.93
2024-04-15T09:03:14.107Z,31.04
2024-04-15T09:08:18.864Z,31.22
2024-04-15T09:13:23.594Z,31.18
2024-04-15T09:18:29.025Z,31.42
2024-04-15T09:23:36.124Z,30.95
2024-04-15T09:28:40.893Z,31.31
2024-04-15T09:33:46.379Z,31.50
2024-04-15T09:38:52.890Z,31.68
2024-04-15T09:43:58.484Z,32.17
2024-04-15T09:49:07.741Z,32.51
2024-04-15T09:54:14.431Z,32.34
2024-04-15T09:59:19.997Z,32.34
2024-04-15T10:04:25.651Z,32.86
2024-04-15T10:09:31.033Z,32.11
2024-04-15T10:14:36.811Z,32.38
2024-04-15T10:19:44.044Z,32.42
2024-04-15T10:24:48.809Z,32.54
2024-04-15T10:29:54.018Z,33.00
2024-04-15T10:35:00.575Z,32.75
2024-04-15T10:40:07.665Z,32.40
2024-04-15T10:45:21.333Z,33.10
2024-04-15T10:50:26.678Z,32.69
2024-04-15T10:55:31.476Z,33.14
2024-04-15T11:00:37.333Z,33.34
2024-04-15T11:05:42.034Z,32.92
2024-04-15T11:10:47.584Z,32.72
2024-04-15T11:15:56.416Z,32.94
2024-04-15T11:21:04.996Z,33.06
2024-04-15T11:26:16.875Z,33.48
2024-04-15T11:31:21.711Z,33.77
2024-04-15T11:36:26.621Z,33.58
2024-04-15T11:41:31.324Z,33.84
2024-04-15T11:46:36.142Z,33.07
2024-04-15T11:51:40.864Z,33.39
2024-04-15T11:56:45.771Z,33.00
2024-04-15T12:01:50.637Z,32.95
2024-04-15T12:06:56.337Z,33.35
2024-04-15T12:12:01.052Z,32.85
2024-04-15T12:17:07.630Z,33.87
2024-04-15T12:22:12.416Z,33.87
2024-04-15T12:27:17.600Z,33.50
2024-04-15T12:32:22.407Z,33.69
2024-04-15T12:37:27.205Z,33.89
2024-04-15T12:42:31.915Z,33.11
2024-04-15T12:47:38.373Z,33.05
2024-04-15T12:52:43.158Z,32.34
2024-04-15T12:57:47.948Z,33.50
2024-04-15T13:02:52.732Z,33.06
2024-04-15T13:07:57.679Z,32.85
2024-04-15T13:13:02.383Z,32.52
2024-04-15T13:18:07.512Z,32.28
2024-04-15T13:23:13.567Z,32.52
2024-04-15T13:28:18.356Z,32.25
2024-04-15T13:33:23.281Z,32.09
2024-04-15T13:38:29.269Z,32.57
2024-04-15T13:43:34.139Z,32.84
2024-04-15T13:48:39.178Z,31.92
2024-04-15T13:53:43.901Z,32.02
2024-04-15T13:58:48.661Z,31.73
2024-04-15T14:03:54.225Z,31.76
2024-04-15T14:08:59.344Z,31.45
2024-04-15T14:14:04.215Z,31.20
2024-04-15T14:19:09.283Z,31.31
2024-04-15T14:24:14.605Z,31.17
2024-04-15T14:29:22.617Z,30.83
2024-04-15T14:34:28.765Z,30.12
2024-04-15T14:39:33.500Z,29.69
2024-04-15T14:44:38.320Z,29.19
2024-04-15T14:49:43.154Z,28.95
2024-04-15T14:54:47.915Z,28.42
2024-04-15T14:59:54.332Z,28.10
2024-04-15T15:04:59.201Z,27.79
2024-04-15T15:10:04.673Z,27.74
2024-04-15T15:15:09.721Z,27.70
2024-04-15T15:20:14.563Z,27.35
2024-04-15T15:25:19.441Z,27.26
2024-04-15T15:30:24.306Z,27.23
2024-04-15T15:35:29.018Z,27.01
2024-04-15T15:40:33.813Z,26.58
2024-04-15T15:45:38.622Z,26.25
2024-04-15T15:50:43.289Z,26.04
2024-04-15T15:55:49.523Z,25.91
2024-04-15T16:00:54.337Z,25.36
2024-04-15T16:05:59.239Z,25.21
2024-04-15T16:11:03.995Z,25.11
2024-04-15T16:16:09.177Z,24.88
2024-04-15T16:21:14.295Z,24.56
2024-04-15T16:26:19.410Z,24.54
2024-04-15T16:31:24.454Z,24.24
2024-04-15T16:36:30.140Z,24.23
2024-04-15T16:41:34.865Z,24.17
2024-04-15T16:46:39.924Z,24.15
2024-04-15T16:51:44.595Z,23.92
2024-04-15T16:56:49.366Z,23.66
2024-04-15T17:01:54.210Z,23.44
2024-04-15T17:06:59.072Z,23.26
2024-04-15T17:12:03.906Z,22.96
2024-04-15T17:17:11.892Z,22.60
2024-04-15T17:22:17.243Z,22.58
2024-04-15T17:27:22.163Z,22.65
2024-04-15T17:32:30.008Z,22.63
2024-04-15T17:37:35.169Z,22.74
2024-04-15T17:42:41.157Z,22.78
2024-04-15T17:47:46.560Z,22.77
2024-04-15T17:52:51.389Z,22.63
2024-04-15T17:57:58.620Z,22.46
2024-04-15T18:03:04.870Z,22.31
2024-04-15T18:08:11.004Z,22.00
2024-04-15T18:13:15.808Z,21.86
2024-04-15T18:18:20.665Z,21.91
2024-04-15T18:23:25.465Z,21.83
2024-04-15T18:28:30.305Z,21.74
2024-04-15T18:33:35.387Z,21.89
2024-04-15T18:38:40.189Z,21.79
2024-04-15T18:43:44.932Z,21.77
2024-04-15T18:48:49.714Z,21.82
2024-04-15T18:53:54.456Z,21.91
2024-04-15T18:58:59.291Z,21.75
2024-04-15T19:04:04.395Z,21.96
2024-04-15T19:09:09.307Z,21.88
2024-04-15T19:14:15.180Z,21.83
2024-04-15T19:19:20.027Z,21.63
2024-04-15T19:24:24.812Z,21.75
2024-04-15T19:29:29.784Z,21.51
2024-04-15T19:34:34.568Z,21.29
2024-04-15T19:39:39.807Z,21.45
2024-04-15T19:44:44.767Z,21.47
2024-04-15T19:49:49.555Z,21.46
2024-04-15T19:54:54.484Z,21.30
2024-04-15T19:59:59.324Z,21.27
2024-04-15T20:05:04.189Z,21.15
2024-04-15T20:10:09.213Z,20.95
2024-04-15T20:15:14.077Z,20.81
2024-04-15T20:20:21.390Z,20.79
2024-04-15T20:25:26.167Z,20.71
2024-04-15T20:30:30.940Z,20.49
2024-04-15T20:35:35.832Z,20.60
2024-04-15T20:40:41.597Z,20.52
2024-04-15T20:45:50.092Z,20.41
2024-04-15T20:50:54.871Z,20.23
2024-04-15T20:56:00.283Z,20.16
2024-04-15T21:01:07.611Z,20.07
2024-04-15T21:06:12.466Z,20.12
2024-04-15T21:11:17.271Z,19.98
2024-04-15T21:16:22.441Z,20.05
2024-04-15T21:21:27.239Z,19.90
2024-04-15T21:26:32.074Z,19.91
2024-04-15T21:31:36.898Z,19.98
2024-04-15T21:36:41.658Z,19.94
2024-04-15T21:41:46.434Z,19.96
2024-04-15T21:46:51.266Z,19.92
2024-04-15T21:51:55.989Z,19.92
2024-04-15T21:57:02.125Z,20.02
2024-04-15T22:02:07.312Z,19.90
2024-04-15T22:07:12.070Z,19.60
2024-04-15T22:12:16.838Z,19.42
2024-04-15T22:17:21.730Z,19.32
2024-04-15T22:22:26.697Z,19.10
2024-04-15T22:27:31.522Z,19.16
2024-04-15T22:32:36.333Z,19.00
2024-04-15T22:37:41.099Z,19.09
2024-04-15T22:42:45.875Z,19.21
2024-04-15T22:47:50.656Z,19.34
2024-04-15T22:52:55.862Z,19.23
2024-04-15T22:58:00.702Z,19.18
2024-04-15T23:03:05.511Z,19.15
2024-04-15T23:08:10.546Z,19.05
2024-04-15T23:13:15.314Z,19.11
2024-04-15T23:18:20.280Z,18.90
2024-04-15T23:23:25.168Z,18.49
2024-04-15T23:28:32.486Z,18.67
2024-04-15T23:33:37.796Z,18.56
2024-04-15T23:38:43.623Z,18.28
2024-04-15T23:43:48.449Z,18.34
2024-04-15T23:49:12.126Z,18.43
2024-04-15T23:54:35.665Z,18.42
2024-04-15T23:59:59.328Z,18.57
